Time;durP1;ratioP1;P1;durP2;ratioP2;P2;SDS_P1;SDS_P2;PMS_P1;PMS_P2;Temp;Humidity;BMP_temperature;BMP_pressure;BME280_temperature;BME280_humidity;BME280_pressure;Samples;Min_cycle;Max_cycle;Signal;HPM_P1;HPM_P2
2021/06/24 00:01:42;;;;;;;12.75;4.95;;;;;;;19.87;98.07;93554.38;4976985;28;20057;-92
2021/06/24 00:04:09;;;;;;;8.38;3.55;;;;;;;19.68;99.58;93546.31;4977267;28;20063;-94
2021/06/24 00:06:37;;;;;;;5.80;3.63;;;;;;;19.48;100.00;93529.56;4977196;28;20477;-92
2021/06/24 00:09:04;;;;;;;7.38;3.67;;;;;;;19.57;100.00;93555.91;4976553;28;20473;-91
2021/06/24 00:11:31;;;;;;;7.00;3.28;;;;;;;19.06;100.00;93491.41;4975731;28;20105;-91
2021/06/24 00:14:01;;;;;;;5.65;3.78;;;;;;;19.48;100.00;93549.63;4974411;28;20047;-91
2021/06/24 00:16:28;;;;;;;6.57;3.33;;;;;;;19.58;100.00;93559.31;4973794;28;20082;-91
2021/06/24 00:18:55;;;;;;;7.07;3.45;;;;;;;19.48;100.00;93542.59;4975547;28;20069;-91
2021/06/24 00:21:22;;;;;;;14.02;4.88;;;;;;;19.61;100.00;93556.97;4975668;28;20042;-91
2021/06/24 00:23:51;;;;;;;9.52;3.95;;;;;;;19.15;99.11;93482.09;4975916;28;20070;-91
2021/06/24 00:26:18;;;;;;;14.57;4.82;;;;;;;19.60;99.04;93547.59;4974814;28;20478;-91
2021/06/24 00:28:45;;;;;;;8.68;3.70;;;;;;;19.21;98.81;93493.31;4975726;28;20047;-91
2021/06/24 00:31:12;;;;;;;7.55;3.58;;;;;;;19.51;98.66;93549.13;4975837;28;20491;-93
2021/06/24 00:33:39;;;;;;;5.72;3.70;;;;;;;19.24;98.91;93516.22;4975963;28;20061;-92
2021/06/24 00:36:06;;;;;;;7.38;3.80;;;;;;;19.06;99.50;93488.81;4975518;28;20043;-92
2021/06/24 00:38:33;;;;;;;6.65;3.38;;;;;;;19.13;100.00;93506.81;4975695;28;20043;-93
2021/06/24 00:41:01;;;;;;;8.30;3.38;;;;;;;19.38;99.33;93539.19;4976046;28;20050;-92
2021/06/24 00:43:29;;;;;;;10.38;3.33;;;;;;;19.32;99.33;93530.56;4975374;28;20050;-91
2021/06/24 00:45:56;;;;;;;5.20;3.53;;;;;;;19.02;99.71;93488.53;4975974;28;20415;-92
2021/06/24 00:48:22;;;;;;;5.93;3.30;;;;;;;19.57;100.00;93566.31;4975044;28;20401;-92
2021/06/24 00:50:50;;;;;;;8.95;3.53;;;;;;;19.54;100.00;93561.66;4975559;28;20053;-92
2021/06/24 00:53:17;;;;;;;12.50;4.60;;;;;;;19.43;100.00;93550.41;4975724;28;20448;-93
2021/06/24 00:55:46;;;;;;;8.20;4.93;;;;;;;19.40;100.00;93552.75;4975782;28;20051;-92
2021/06/24 00:58:15;;;;;;;8.45;3.60;;;;;;;19.17;100.00;93528.72;4975620;28;20067;-92
2021/06/24 01:00:44;;;;;;;5.65;3.08;;;;;;;19.08;100.00;93505.75;4975345;28;20043;-93
2021/06/24 01:03:13;;;;;;;9.55;4.25;;;;;;;19.32;100.00;93557.41;4974784;28;20054;-92
2021/06/24 01:05:41;;;;;;;7.18;3.40;;;;;;;19.29;100.00;93552.69;4975204;28;20047;-92
2021/06/24 01:08:11;;;;;;;9.10;4.20;;;;;;;18.98;100.00;93516.09;4973502;28;20481;-91
2021/06/24 01:10:38;;;;;;;5.60;4.63;;;;;;;19.21;100.00;93564.38;4975971;28;20055;-93
2021/06/24 01:13:06;;;;;;;12.35;3.95;;;;;;;19.11;100.00;93564.34;4975840;28;20478;-92
2021/06/24 01:15:36;;;;;;;10.95;4.10;;;;;;;19.09;100.00;93572.44;4975709;28;20371;-92
2021/06/24 01:18:03;;;;;;;7.57;4.32;;;;;;;19.01;100.00;93565.06;4976365;28;20077;-92
2021/06/24 01:20:34;;;;;;;12.35;4.88;;;;;;;18.61;100.00;93517.75;4976124;28;20047;-92
2021/06/24 01:23:01;;;;;;;11.25;3.47;;;;;;;18.57;100.00;93529.72;4975826;28;20046;-92
2021/06/24 01:25:30;;;;;;;5.85;3.50;;;;;;;18.27;100.00;93489.47;4975571;28;20536;-92
2021/06/24 01:27:59;;;;;;;6.32;3.92;;;;;;;18.86;100.00;93570.19;4975630;28;20405;-91
2021/06/24 01:30:26;;;;;;;8.25;5.13;;;;;;;18.86;100.00;93572.78;4975175;28;20062;-92
2021/06/24 01:32:53;;;;;;;9.15;3.65;;;;;;;18.60;100.00;93536.22;4975462;28;20051;-92
2021/06/24 01:35:22;;;;;;;9.60;3.97;;;;;;;18.82;100.00;93581.13;4975030;28;20061;-91
2021/06/24 01:37:49;;;;;;;7.72;5.13;;;;;;;18.48;100.00;93532.00;4974572;28;20059;-92
2021/06/24 01:40:16;;;;;;;6.45;3.65;;;;;;;18.73;100.00;93566.19;4975211;28;20056;-91
2021/06/24 01:42:44;;;;;;;8.63;5.20;;;;;;;18.77;100.00;93557.66;4975285;28;20695;-91
2021/06/24 01:45:12;;;;;;;7.75;4.53;;;;;;;18.61;100.00;93541.16;4974760;28;20058;-91
2021/06/24 01:47:39;;;;;;;8.32;3.97;;;;;;;18.77;100.00;93559.47;4975027;28;21081;-92
2021/06/24 01:50:10;;;;;;;9.98;3.75;;;;;;;18.73;100.00;93553.97;4974794;28;20043;-91
2021/06/24 01:52:37;;;;;;;8.70;3.65;;;;;;;18.75;100.00;93562.31;4975026;28;20057;-92
2021/06/24 01:55:05;;;;;;;7.78;4.03;;;;;;;18.62;100.00;93540.16;4975195;28;20540;-91
2021/06/24 01:57:32;;;;;;;6.53;3.17;;;;;;;18.37;100.00;93510.34;4974694;28;20055;-92
2021/06/24 02:00:02;;;;;;;8.38;3.28;;;;;;;18.42;100.00;93531.19;4974503;28;20062;-91
2021/06/24 02:02:32;;;;;;;8.00;3.72;;;;;;;18.57;100.00;93563.53;4974696;28;20046;-91
2021/06/24 02:04:59;;;;;;;6.82;3.22;;;;;;;18.26;100.00;93504.28;4974495;28;20085;-91
2021/06/24 02:07:26;;;;;;;6.22;3.67;;;;;;;18.53;100.00;93554.66;4974575;28;20101;-92
2021/06/24 02:09:53;;;;;;;6.63;3.55;;;;;;;18.51;100.00;93544.50;4974406;28;20049;-92
2021/06/24 02:12:20;;;;;;;6.68;3.08;;;;;;;18.24;100.00;93515.97;4974255;28;20105;-92
2021/06/24 02:14:47;;;;;;;8.85;4.20;;;;;;;18.23;100.00;93527.41;4974487;28;20046;-91
2021/06/24 02:17:15;;;;;;;5.47;3.28;;;;;;;18.21;100.00;93532.84;4974442;28;20490;-92
2021/06/24 02:19:42;;;;;;;9.15;3.53;;;;;;;18.01;100.00;93497.06;4974376;28;20105;-92
2021/06/24 02:22:09;;;;;;;7.97;3.53;;;;;;;18.26;100.00;93529.50;4974351;28;20061;-91
2021/06/24 02:24:36;;;;;;;9.52;4.00;;;;;;;18.29;100.00;93523.81;4974605;28;20051;-91
2021/06/24 02:27:03;;;;;;;8.38;4.80;;;;;;;18.45;100.00;93537.69;4974107;28;20098;-92
2021/06/24 02:29:30;;;;;;;10.48;3.55;;;;;;;18.26;100.00;93503.50;4974097;28;20058;-91
2021/06/24 02:31:56;;;;;;;9.85;5.32;;;;;;;18.37;100.00;93514.78;4974367;28;20109;-92
2021/06/24 02:34:26;;;;;;;9.70;4.07;;;;;;;18.45;100.00;93529.09;4974041;28;20478;-92
2021/06/24 02:36:52;;;;;;;10.20;4.60;;;;;;;17.95;100.00;93462.44;4974267;28;20058;-92
2021/06/24 02:39:19;;;;;;;7.47;3.50;;;;;;;18.39;100.00;93536.88;4974133;28;20053;-91
2021/06/24 02:41:46;;;;;;;6.10;3.85;;;;;;;18.05;100.00;93486.97;4973603;28;20054;-91
2021/06/24 02:44:13;;;;;;;6.57;3.63;;;;;;;17.84;100.00;93479.78;4974134;28;20109;-92
2021/06/24 02:46:41;;;;;;;9.60;3.83;;;;;;;17.99;100.00;93501.72;4974083;28;20077;-92
2021/06/24 02:49:07;;;;;;;11.48;3.30;;;;;;;18.18;100.00;93530.75;4973240;28;20482;-92
2021/06/24 02:51:38;;;;;;;6.65;3.40;;;;;;;18.10;100.00;93529.38;4974199;28;20051;-91
2021/06/24 02:54:05;;;;;;;8.77;4.00;;;;;;;18.09;100.00;93525.22;4973870;28;20061;-92
2021/06/24 02:56:34;;;;;;;8.70;3.20;;;;;;;17.92;100.00;93501.94;4974230;28;20409;-92
2021/06/24 02:59:01;;;;;;;8.05;4.18;;;;;;;18.25;100.00;93559.16;4973566;28;20051;-92
2021/06/24 03:01:27;;;;;;;11.70;4.35;;;;;;;18.25;100.00;93567.75;4973979;28;20135;-92
2021/06/24 03:03:54;;;;;;;15.40;4.25;;;;;;;18.19;100.00;93570.53;4974162;28;20482;-92
2021/06/24 03:06:21;;;;;;;9.73;3.60;;;;;;;18.15;100.00;93562.47;4973901;28;20053;-91
2021/06/24 03:08:49;;;;;;;9.80;4.65;;;;;;;17.82;100.00;93507.06;4973591;28;20069;-92
2021/06/24 03:11:16;;;;;;;18.17;3.75;;;;;;;17.74;100.00;93495.31;4973863;28;20043;-92
2021/06/24 03:13:47;;;;;;;8.63;3.58;;;;;;;17.95;100.00;93529.25;4973813;28;20073;-92
2021/06/24 03:16:15;;;;;;;7.28;3.90;;;;;;;18.08;100.00;93551.47;4973618;28;20086;-91
2021/06/24 03:18:45;;;;;;;5.78;3.20;;;;;;;17.77;100.00;93516.38;4973582;28;20097;-93
2021/06/24 03:21:12;;;;;;;10.52;5.22;;;;;;;18.18;100.00;93572.34;4973997;28;20051;-93
2021/06/24 03:23:39;;;;;;;10.73;3.65;;;;;;;18.11;100.00;93543.97;4973458;28;20043;-92
2021/06/24 03:29:17;;;;;;;8.30;3.60;;;;;;;18.10;100.00;93529.38;4934590;29;20059;-90
2021/06/24 03:32:00;;;;;;;7.68;3.92;;;;;;;17.54;100.00;93438.78;4966251;28;20106;-92
2021/06/24 03:34:52;;;;;;;8.52;3.58;;;;;;;17.64;100.00;93438.84;4974845;28;20082;-93
2021/06/24 03:37:19;;;;;;;9.88;3.63;;;;;;;18.46;100.00;93549.66;4974450;28;20074;-93
2021/06/24 03:42:59;;;;;;;8.52;4.50;;;;;;;18.51;100.00;93557.50;4969490;28;20061;-92
2021/06/24 03:48:49;;;;;;;5.10;4.05;;;;;;;18.51;100.00;93557.50;4933744;29;20071;-92
2021/06/24 03:54:31;;;;;;;10.98;4.53;;;;;;;18.54;100.00;93564.81;4973684;28;20066;-92
2021/06/24 04:00:33;;;;;;;12.18;4.70;;;;;;;18.14;100.00;93467.28;4976031;28;20136;-92
2021/06/24 04:03:00;;;;;;;11.50;4.25;;;;;;;18.78;100.00;93548.81;4976959;28;20065;-91
2021/06/24 04:05:30;;;;;;;8.63;3.83;;;;;;;18.81;100.00;93535.31;4976782;28;20061;-91
2021/06/24 04:08:08;;;;;;;11.05;4.28;;;;;;;18.67;100.00;93501.16;4977166;28;20054;-92
2021/06/24 04:10:37;;;;;;;7.32;3.80;;;;;;;19.10;100.00;93568.00;4976344;28;20476;-92
2021/06/24 04:13:04;;;;;;;6.30;4.35;;;;;;;19.22;100.00;93570.38;4976585;28;20401;-92
2021/06/24 04:15:34;;;;;;;15.05;5.22;;;;;;;19.26;100.00;93563.66;4976890;28;20803;-92
2021/06/24 04:18:02;;;;;;;10.30;4.68;;;;;;;19.32;100.00;93562.63;4976361;28;20057;-92
2021/06/24 04:20:30;;;;;;;6.93;4.20;;;;;;;19.26;100.00;93536.81;4976490;28;20050;-92
2021/06/24 04:23:09;;;;;;;6.20;4.63;;;;;;;18.87;100.00;93472.84;4976410;28;20054;-92
2021/06/24 04:25:38;;;;;;;10.73;4.72;;;;;;;19.32;100.00;93525.34;4976142;28;20054;-92
2021/06/24 04:38:11;;;;;;;6.80;3.58;;;;;;;19.82;100.00;93538.75;4956908;28;20060;-92
2021/06/24 04:44:05;;;;;;;6.73;4.13;;;;;;;19.99;100.00;93516.88;4969497;28;20059;-92
2021/06/24 04:46:33;;;;;;;9.60;4.72;;;;;;;19.82;100.00;93485.84;4976194;28;20058;-92
2021/06/24 04:49:01;;;;;;;7.38;4.47;;;;;;;20.11;100.00;93514.00;4976108;28;20468;-92
2021/06/24 04:51:28;;;;;;;10.95;4.55;;;;;;;20.29;100.00;93539.56;4976028;28;20051;-92
2021/06/24 04:53:58;;;;;;;7.85;3.63;;;;;;;20.16;99.04;93490.53;4976275;28;20399;-91
2021/06/24 04:56:24;;;;;;;12.75;5.22;;;;;;;20.25;99.77;93502.00;4976515;28;20074;-92
2021/06/24 04:58:51;;;;;;;12.27;6.35;;;;;;;20.51;99.71;93522.06;4976026;28;20050;-93
2021/06/24 05:01:20;;;;;;;8.40;4.30;;;;;;;20.49;99.29;93505.88;4976370;28;20058;-93
2021/06/24 05:03:48;;;;;;;10.70;4.65;;;;;;;20.68;97.50;93512.09;4975947;28;20065;-94
2021/06/24 05:06:17;;;;;;;12.07;4.50;;;;;;;21.04;98.16;93547.78;4976286;28;20050;-93
2021/06/24 05:08:44;;;;;;;7.05;4.55;;;;;;;20.66;99.15;93475.06;4976074;28;20138;-93
2021/06/24 05:11:11;;;;;;;10.02;4.90;;;;;;;21.17;97.29;93543.84;4975407;28;20047;-92
2021/06/24 05:13:40;;;;;;;10.52;4.50;;;;;;;21.22;95.02;93522.91;4976150;28;20401;-93
2021/06/24 05:16:07;;;;;;;6.68;5.30;;;;;;;21.39;99.29;93527.03;4976004;28;20402;-93
2021/06/24 05:18:35;;;;;;;6.18;4.35;;;;;;;21.38;97.85;93519.44;4976005;28;20046;-93
2021/06/24 05:21:04;;;;;;;8.63;4.18;;;;;;;21.18;98.83;93485.31;4975705;28;20047;-93
2021/06/24 05:23:31;;;;;;;11.13;5.38;;;;;;;21.38;100.00;93527.28;4975590;28;20186;-93
2021/06/24 05:26:03;;;;;;;8.23;4.00;;;;;;;21.39;99.03;93489.66;4976498;28;20470;-93
2021/06/24 05:28:30;;;;;;;10.65;4.57;;;;;;;22.05;95.41;93549.63;4975918;28;20062;-94
2021/06/24 05:31:00;;;;;;;13.82;5.45;;;;;;;21.81;95.73;93484.94;4975783;28;20453;-92
2021/06/24 05:33:31;;;;;;;11.23;5.65;;;;;;;22.10;94.97;93494.66;4975779;28;20362;-94
2021/06/24 05:35:59;;;;;;;8.60;4.53;;;;;;;22.45;93.05;93515.56;4975866;28;20493;-93
2021/06/24 05:38:27;;;;;;;9.00;4.40;;;;;;;22.67;92.50;93528.97;4975231;28;20082;-93
2021/06/24 05:40:56;;;;;;;13.23;5.10;;;;;;;22.53;91.42;93497.44;4975068;28;20051;-93
2021/06/24 05:43:23;;;;;;;13.43;4.88;;;;;;;23.03;91.36;93540.91;4975238;28;20043;-93
2021/06/24 05:45:50;;;;;;;7.35;4.15;;;;;;;23.28;91.01;93553.97;4975538;28;20051;-93
2021/06/24 05:48:16;;;;;;;6.80;4.20;;;;;;;22.94;91.89;93534.72;4975705;28;20053;-94
2021/06/24 05:50:43;;;;;;;7.82;4.90;;;;;;;22.98;91.76;93529.69;4975440;28;20067;-93
2021/06/24 05:53:11;;;;;;;8.77;5.05;;;;;;;22.92;91.50;93510.63;4975075;28;20050;-93
2021/06/24 05:55:49;;;;;;;9.18;4.55;;;;;;;23.38;90.32;93535.53;4975278;28;20573;-93
2021/06/24 05:58:17;;;;;;;8.52;4.63;;;;;;;23.45;87.30;93499.25;4978929;28;20050;-94
2021/06/24 06:16:55;;;;;;;6.60;3.85;;;;;;;26.71;71.58;93539.81;5124833;27;1316667;-92
2021/06/24 06:19:21;;;;;;;6.97;3.53;;;;;;;26.71;70.48;93547.72;5144497;27;20112;-93
2021/06/24 06:21:48;;;;;;;10.60;5.25;;;;;;;26.84;70.63;93536.28;5145815;27;20039;-92
2021/06/24 06:24:15;;;;;;;15.82;6.82;;;;;;;26.76;68.83;93542.31;5139044;27;20043;-94
2021/06/24 06:26:42;;;;;;;16.02;6.28;;;;;;;26.73;69.64;93542.91;5137350;27;20514;-92
2021/06/24 06:29:08;;;;;;;16.48;5.95;;;;;;;26.99;67.84;93544.91;5139258;27;20091;-92
2021/06/24 06:31:38;;;;;;;15.13;7.75;;;;;;;27.37;69.53;93543.59;5138977;27;20036;-94
2021/06/24 06:34:06;;;;;;;12.68;7.57;;;;;;;27.75;67.06;93543.06;5137501;27;20432;-94
2021/06/24 06:36:33;;;;;;;12.07;7.53;;;;;;;27.90;67.40;93549.72;5138556;27;20069;-93
2021/06/24 06:41:44;;;;;;;20.15;9.57;;;;;;;28.49;64.54;93545.81;5139321;27;20046;-92
2021/06/24 06:44:11;;;;;;;15.13;7.63;;;;;;;28.46;64.32;93550.94;5137862;27;20035;-93
2021/06/24 06:46:38;;;;;;;16.77;8.45;;;;;;;28.62;62.74;93552.00;5137557;27;20043;-93
2021/06/24 06:49:06;;;;;;;14.57;7.57;;;;;;;28.95;61.13;93537.44;5139339;27;20096;-92
2021/06/24 06:51:33;;;;;;;13.30;6.88;;;;;;;29.38;60.13;93548.13;5137920;27;20040;-93
2021/06/24 06:54:00;;;;;;;13.90;7.13;;;;;;;29.56;58.91;93544.28;5134386;27;20074;-96
2021/06/24 06:56:27;;;;;;;14.45;7.45;;;;;;;29.78;58.33;93549.56;5149105;27;20053;-93
2021/06/24 06:58:54;;;;;;;21.15;7.10;;;;;;;30.02;59.05;93548.91;5132155;27;20468;-93
2021/06/24 07:01:20;;;;;;;14.45;6.28;;;;;;;30.22;56.76;93541.31;5128248;28;20055;-94
2021/06/24 07:03:47;;;;;;;14.27;7.38;;;;;;;30.22;56.76;93541.31;5128289;28;20044;-95
2021/06/24 07:06:15;;;;;;;14.13;6.65;;;;;;;30.61;55.48;93549.78;5128310;28;20122;-94
2021/06/24 07:08:43;;;;;;;14.63;6.85;;;;;;;30.69;53.36;93542.88;5133211;27;20447;-95
2021/06/24 07:11:11;;;;;;;14.95;6.13;;;;;;;29.93;54.52;93542.91;5148485;27;20409;-94
2021/06/24 07:13:37;;;;;;;16.02;5.65;;;;;;;29.87;57.10;93537.84;5148313;27;20053;-90
2021/06/24 07:16:05;;;;;;;17.08;6.88;;;;;;;30.30;56.58;93543.09;5144920;27;20104;-92
2021/06/24 07:18:32;;;;;;;16.77;5.38;;;;;;;30.76;54.85;93529.84;5134914;27;20051;-93
2021/06/24 07:20:58;;;;;;;9.88;4.55;;;;;;;30.45;53.14;93539.03;5128395;27;20039;-91
2021/06/24 07:23:27;;;;;;;18.83;5.57;;;;;;;30.72;52.91;93536.91;5134315;27;20047;-94
2021/06/24 07:25:54;;;;;;;18.20;5.53;;;;;;;31.06;53.12;93536.81;5132567;27;20047;-93
2021/06/24 07:28:20;;;;;;;11.73;5.35;;;;;;;30.88;54.66;93539.69;5113861;28;20044;-92
2021/06/24 07:30:49;;;;;;;12.30;4.68;;;;;;;31.05;53.43;93530.72;5113820;28;20051;-92
2021/06/24 07:33:15;;;;;;;12.63;5.40;;;;;;;31.41;52.46;93536.38;5114102;28;20070;-94
2021/06/24 07:35:42;;;;;;;16.17;6.18;;;;;;;31.58;50.10;93535.34;5113837;28;20047;-92
2021/06/24 07:38:09;;;;;;;8.27;4.85;;;;;;;31.65;49.45;93510.88;5113830;28;20044;-93
2021/06/24 07:40:39;;;;;;;10.85;4.50;;;;;;;31.64;50.28;93533.22;5113536;28;20051;-91
2021/06/24 07:43:06;;;;;;;13.75;5.97;;;;;;;31.78;50.64;93543.47;5114054;28;20048;-95
2021/06/24 07:45:33;;;;;;;18.67;5.57;;;;;;;32.12;50.09;93541.38;5113906;28;20047;-94
2021/06/24 07:48:00;;;;;;;11.95;4.13;;;;;;;32.18;47.63;93535.84;5113602;28;20487;-88
2021/06/24 07:50:27;;;;;;;12.02;4.43;;;;;;;31.96;49.69;93536.03;5116221;28;20085;-92
2021/06/24 07:52:54;;;;;;;9.10;5.30;;;;;;;32.49;48.89;93537.03;5122531;28;20051;-87
2021/06/24 07:55:21;;;;;;;10.27;4.80;;;;;;;32.56;46.37;93529.25;5120353;28;20078;-93
2021/06/24 07:57:49;;;;;;;14.65;4.90;;;;;;;32.95;47.08;93541.94;5116411;28;20494;-93
2021/06/24 08:14:08;;;;;;;8.65;3.78;;;;;;;34.17;41.62;93539.63;5065221;28;20467;-92
2021/06/24 08:16:35;;;;;;;5.78;2.55;;;;;;;34.35;39.64;93539.16;5064493;28;20048;-93
2021/06/24 08:19:02;;;;;;;10.70;3.33;;;;;;;34.60;39.66;93547.63;5064408;27;20056;-92
2021/06/24 08:21:29;;;;;;;14.30;3.63;;;;;;;34.65;39.23;93539.34;5064640;28;20041;-93
2021/06/24 08:23:56;;;;;;;6.63;2.42;;;;;;;34.85;37.04;93543.84;5065156;28;20471;-96
2021/06/24 08:26:22;;;;;;;7.07;4.53;;;;;;;34.96;36.28;93546.66;5063546;28;20168;-92
2021/06/24 08:28:49;;;;;;;7.55;3.63;;;;;;;35.11;37.51;93540.44;5063790;28;20041;-92
2021/06/24 08:31:17;;;;;;;8.90;3.50;;;;;;;35.17;36.08;93538.25;5064218;28;20060;-91
2021/06/24 08:33:44;;;;;;;6.88;2.20;;;;;;;35.11;33.21;93545.78;5064216;28;20053;-92
2021/06/24 08:36:11;;;;;;;3.47;1.60;;;;;;;35.34;33.98;93546.88;5065079;28;20049;-94
2021/06/24 08:38:38;;;;;;;8.65;2.45;;;;;;;35.53;32.46;93537.97;5063956;28;20045;-93
2021/06/24 08:41:05;;;;;;;4.63;2.10;;;;;;;35.38;34.89;93537.78;5064314;28;20052;-92
2021/06/24 08:43:32;;;;;;;4.90;2.67;;;;;;;35.50;34.68;93528.78;5064141;28;20052;-92
2021/06/24 08:46:01;;;;;;;6.13;2.33;;;;;;;35.73;34.00;93529.84;5064051;28;20052;-92
2021/06/24 08:48:34;;;;;;;7.88;3.08;;;;;;;35.18;33.82;93531.78;5064329;28;20045;-92
2021/06/24 08:51:01;;;;;;;8.63;3.92;;;;;;;34.31;34.28;93536.44;5063995;28;20053;-88
2021/06/24 08:53:28;;;;;;;7.78;3.55;;;;;;;34.71;34.96;93531.78;5063973;28;20117;-93
2021/06/24 08:55:56;;;;;;;12.57;2.75;;;;;;;34.29;37.00;93528.00;5063900;28;20053;-92
2021/06/24 08:58:24;;;;;;;8.40;3.42;;;;;;;34.63;35.31;93516.81;5064199;28;20056;-90
2021/06/24 09:00:51;;;;;;;7.57;3.15;;;;;;;34.33;35.49;93528.09;5063964;28;20056;-85
2021/06/24 09:03:20;;;;;;;5.22;2.65;;;;;;;34.06;36.24;93504.00;5063776;28;20448;-91
2021/06/24 09:05:51;;;;;;;9.32;3.08;;;;;;;34.54;34.11;93522.34;5063885;28;20464;-92
2021/06/24 09:08:37;;;;;;;6.20;2.45;;;;;;;34.80;33.48;93522.78;5063682;28;20097;-94
2021/06/24 09:11:22;;;;;;;7.43;2.95;;;;;;;34.23;33.24;93527.53;5064021;28;20140;-89
2021/06/24 09:14:01;;;;;;;2.58;1.92;;;;;;;34.95;33.67;93523.78;5057254;28;20057;-87
2021/06/24 09:16:30;;;;;;;3.90;1.95;;;;;;;34.38;33.38;93520.56;5050216;28;20101;-86
2021/06/24 09:19:17;;;;;;;5.03;2.30;;;;;;;34.30;32.65;93523.44;5050104;28;20049;-89
2021/06/24 09:21:48;;;;;;;6.35;2.30;;;;;;;34.63;33.64;93522.91;5050509;28;20132;-92
2021/06/24 09:24:24;;;;;;;4.30;2.72;;;;;;;34.89;33.58;93523.31;5049025;28;20460;-91
2021/06/24 09:26:51;;;;;;;5.57;2.80;;;;;;;35.18;33.59;93516.50;5049954;28;20042;-89
2021/06/24 09:29:19;;;;;;;3.45;1.70;;;;;;;34.98;33.10;93517.72;5049918;28;20135;-88
2021/06/24 09:31:49;;;;;;;6.05;2.72;;;;;;;34.39;33.39;93519.44;5050066;28;20408;-92
2021/06/24 09:34:18;;;;;;;10.40;2.75;;;;;;;34.63;35.17;93514.91;5050142;28;20056;-96
2021/06/24 09:36:48;;;;;;;5.88;2.78;;;;;;;35.13;35.05;93522.16;5050611;28;20173;-83
2021/06/24 09:39:32;;;;;;;9.13;2.97;;;;;;;35.60;34.21;93514.03;5050153;28;20053;-95
2021/06/24 09:42:03;;;;;;;7.45;2.20;;;;;;;36.10;34.53;93515.78;5050412;28;20052;-92
2021/06/24 09:44:31;;;;;;;5.07;1.90;;;;;;;36.53;33.90;93515.44;5049746;28;20057;-90
2021/06/24 09:46:58;;;;;;;9.18;2.60;;;;;;;36.67;32.50;93511.38;5049682;28;20085;-91
2021/06/24 09:49:28;;;;;;;4.57;2.08;;;;;;;36.99;31.57;93508.94;5049813;28;20114;-89
2021/06/24 09:51:57;;;;;;;7.72;1.95;;;;;;;36.88;30.93;93514.22;5049832;28;20053;-91
2021/06/24 09:54:39;;;;;;;6.90;3.17;;;;;;;37.29;31.26;93501.88;5049907;28;20109;-91
2021/06/24 09:57:07;;;;;;;9.27;2.53;;;;;;;37.48;31.50;93495.47;5049806;28;20400;-92
2021/06/24 09:59:37;;;;;;;8.88;2.47;;;;;;;37.71;28.21;93497.13;5049643;28;20049;-91
2021/06/24 10:02:12;;;;;;;8.45;3.40;;;;;;;37.75;30.23;93492.56;5049633;28;20128;-92
2021/06/24 10:04:40;;;;;;;;;;;;;;;36.61;31.50;93497.53;5049823;28;20057;-91
2021/06/24 10:07:11;;;;;;;5.13;2.42;;;;;;;36.76;32.45;93498.44;5049413;28;20269;-89
2021/06/24 10:09:40;;;;;;;9.57;3.08;;;;;;;35.40;31.93;93497.38;5049020;28;20152;-84
2021/06/24 10:12:09;;;;;;;8.70;3.60;;;;;;;35.49;32.96;93495.19;5049195;28;20061;-89
2021/06/24 10:14:38;;;;;;;9.77;2.40;;;;;;;35.88;31.84;93482.69;5049255;28;20380;-89
2021/06/24 10:17:06;;;;;;;5.55;2.50;;;;;;;36.38;32.09;93483.19;5049371;28;20106;-92
2021/06/24 10:19:35;;;;;;;10.68;3.67;;;;;;;36.87;31.82;93477.88;5049125;28;20056;-95
2021/06/24 10:22:06;;;;;;;6.38;2.17;;;;;;;37.34;30.50;93484.69;5049471;28;20045;-94
2021/06/24 10:24:37;;;;;;;9.05;2.63;;;;;;;37.57;30.70;93484.41;5049011;28;20102;-91
2021/06/24 10:27:08;;;;;;;5.05;1.85;;;;;;;36.93;29.99;93488.25;5048461;28;20407;-86
2021/06/24 10:29:49;;;;;;;7.25;2.65;;;;;;;36.35;31.43;93489.31;5049107;28;20450;-86
2021/06/24 10:32:33;;;;;;;8.07;2.20;;;;;;;35.65;31.45;93465.66;5049089;28;20052;-89
2021/06/24 10:35:02;;;;;;;6.68;2.72;;;;;;;36.21;31.31;93479.25;5049108;28;20053;-92
2021/06/24 10:37:30;;;;;;;9.50;2.10;;;;;;;36.68;30.69;93476.22;5048960;28;20049;-95
2021/06/24 10:40:00;;;;;;;8.05;2.40;;;;;;;37.06;30.77;93465.38;5049077;28;20041;-84
2021/06/24 10:42:31;;;;;;;5.55;2.22;;;;;;;36.87;30.21;93471.75;5048779;28;20049;-89
2021/06/24 10:45:00;;;;;;;8.55;2.33;;;;;;;37.06;30.30;93465.38;5049028;28;20049;-88
2021/06/24 10:47:39;;;;;;;10.32;1.85;;;;;;;37.22;29.73;93465.13;5048996;28;20045;-92
2021/06/24 10:50:43;;;;;;;6.78;2.13;;;;;;;37.45;28.97;93469.44;5049376;28;20060;-87
2021/06/24 10:53:49;;;;;;;3.83;1.80;;;;;;;36.87;29.17;93474.44;5048788;28;20055;-86
2021/06/24 10:56:45;;;;;;;7.43;2.63;;;;;;;37.06;29.96;93467.31;5048899;28;20056;-87
2021/06/24 10:59:30;;;;;;;3.50;1.65;;;;;;;37.29;30.91;93462.47;5048506;28;20049;-92
2021/06/24 11:02:11;;;;;;;5.85;2.90;;;;;;;37.34;30.18;93466.69;5048536;28;20045;-95
2021/06/24 11:04:40;;;;;;;7.63;2.55;;;;;;;37.47;28.79;93461.03;5048659;28;20049;-86
2021/06/24 11:07:21;;;;;;;6.00;2.40;;;;;;;36.66;29.55;93470.47;5048359;28;20042;-91
2021/06/24 11:10:20;;;;;;;5.70;2.78;;;;;;;36.31;29.47;93467.09;5048366;28;20056;-84
2021/06/24 11:13:11;;;;;;;6.38;2.20;;;;;;;36.35;29.87;93456.44;5048268;28;20057;-89
2021/06/24 11:15:55;;;;;;;10.10;2.78;;;;;;;36.83;29.23;93458.34;5048305;28;20049;-90
2021/06/24 11:18:51;;;;;;;4.40;1.87;;;;;;;37.38;29.19;93456.03;5048286;28;20051;-92
2021/06/24 11:21:44;;;;;;;2.97;1.67;;;;;;;37.29;28.73;93453.66;5048313;28;20329;-95
2021/06/24 11:24:16;;;;;;;5.35;2.13;;;;;;;37.66;28.17;93457.31;5048223;28;20098;-85
2021/06/24 11:26:46;;;;;;;5.43;2.30;;;;;;;36.76;28.78;93450.28;5048303;28;20041;-86
2021/06/24 11:29:26;;;;;;;8.25;2.33;;;;;;;37.14;29.98;93458.19;5048191;28;20041;-88
2021/06/24 11:31:56;;;;;;;4.40;2.10;;;;;;;37.48;28.25;93449.16;5048312;28;20089;-94
2021/06/24 11:34:33;;;;;;;3.42;1.42;;;;;;;37.81;28.51;93455.44;5047917;28;20053;-88
2021/06/24 11:37:01;;;;;;;4.75;2.13;;;;;;;38.04;28.06;93457.03;5048085;28;20060;-92
2021/06/24 11:39:29;;;;;;;6.57;2.47;;;;;;;38.07;27.34;93456.28;5047926;28;20423;-85
2021/06/24 11:42:00;;;;;;;8.65;2.97;;;;;;;37.80;28.34;93449.28;5048105;28;20053;-91
2021/06/24 11:44:29;;;;;;;3.28;1.08;;;;;;;38.03;27.10;93442.09;5047908;28;20560;-91
2021/06/24 11:46:58;;;;;;;3.60;1.80;;;;;;;38.33;27.57;93457.09;5047985;28;20041;-90
2021/06/24 11:49:34;;;;;;;4.90;2.30;;;;;;;38.60;27.41;93446.00;5048522;28;20132;-90
2021/06/24 12:00:46;;;;;;;5.65;2.00;;;;;;;37.24;30.95;93444.09;5027909;28;20060;-86
2021/06/24 12:15:31;;;;;;;5.45;1.88;;;;;;;38.92;27.52;93404.16;5079149;27;1446821;-88
2021/06/24 12:17:58;;;;;;;2.72;1.63;;;;;;;38.94;28.03;93380.34;5106980;28;20070;-88
2021/06/24 12:20:27;;;;;;;5.00;1.67;;;;;;;38.06;28.53;93358.19;5106418;28;20397;-87
2021/06/24 12:22:59;;;;;;;1.77;1.17;;;;;;;37.55;30.51;93427.75;5092228;28;20447;-88
2021/06/24 12:25:27;;;;;;;8.32;2.83;;;;;;;37.91;29.90;93421.75;5085585;28;20131;-87
2021/06/24 12:27:56;;;;;;;6.97;2.08;;;;;;;37.81;29.25;93375.78;5085622;28;20104;-90
2021/06/24 12:30:26;;;;;;;8.55;2.83;;;;;;;38.40;28.24;93411.47;5084208;28;20062;-88
2021/06/24 12:32:56;;;;;;;6.25;1.98;;;;;;;38.39;28.34;93387.72;5086326;28;20048;-86
2021/06/24 12:35:25;;;;;;;5.63;2.22;;;;;;;37.61;29.29;93379.97;5085926;28;20393;-88
2021/06/24 12:37:54;;;;;;;11.43;1.90;;;;;;;37.87;29.59;93373.50;5086489;28;20040;-89
2021/06/24 12:40:22;;;;;;;6.65;1.85;;;;;;;38.62;27.05;93406.91;5085981;28;20048;-87
2021/06/24 12:42:51;;;;;;;9.77;1.73;;;;;;;38.53;28.35;93368.16;5085746;28;20448;-86
2021/06/24 12:45:20;;;;;;;7.38;2.45;;;;;;;39.07;28.39;93403.00;5086104;28;20052;-86
2021/06/24 12:47:48;;;;;;;5.70;1.90;;;;;;;39.32;25.28;93391.38;5086403;28;20484;-85
2021/06/24 12:50:20;;;;;;;4.75;0.93;;;;;;;38.71;22.26;93338.63;5085694;28;20052;-88
2021/06/24 12:52:48;;;;;;;7.32;1.65;;;;;;;38.06;22.98;93366.22;5086820;28;20044;-86
2021/06/24 12:55:50;;;;;;;5.78;1.88;;;;;;;37.18;22.41;93381.31;5086469;28;20052;-84
2021/06/24 12:58:19;;;;;;;4.53;2.15;;;;;;;38.00;25.19;93386.53;5086615;28;20056;-85
2021/06/24 13:00:55;;;;;;;5.15;1.10;;;;;;;37.46;26.11;93361.13;5086291;28;20059;-88
2021/06/24 13:03:43;;;;;;;4.78;1.67;;;;;;;37.39;27.68;93382.53;5086062;28;20052;-86
2021/06/24 13:06:18;;;;;;;5.38;1.73;;;;;;;37.73;26.71;93322.53;5085339;28;20493;-88